Tuesday, January 15, 2019, 6:31 PM EST
Back to Local

KBED, Bedford Hanscom Field

Location: Concord, MA, United States Lat: 42.467
Local Time: 6:31 PM EST (23:31 GMT) Lon: -71.3
Time Zone: US/Eastern Elev: 134 ft

Show me the last for .
Show Decoded

2019-01-15 17:56 METAR KBED 152256Z 32003KT 10SM SCT250 M02/M09 A3007 RMK AO2 SLP201 T10221089 $
                 =
2019-01-15 16:56 METAR KBED 152156Z 32005KT 10SM CLR M01/M08 A3006 RMK AO2 SLP196 T10111083 $ =
2019-01-15 15:56 METAR KBED 152056Z 30007KT 10SM SCT250 01/M08 A3005 RMK AO2 SLP194 T00111078 $ =
2019-01-15 14:56 METAR KBED 151956Z 32008KT 10SM FEW060 SCT250 02/M08 A3004 RMK AO2 SLP190
                 T00221078 $ =
2019-01-15 13:56 METAR KBED 151856Z 35007KT 10SM FEW060 BKN250 03/M08 A3003 RMK AO2 SLP187
                 T00281078 $ =
2019-01-15 13:49 METAR KBED 151849Z 34009KT 10SM FEW060 BKN250 03/M08 A3004 RMK AO2 T00281078 $ =
2019-01-15 12:56 METAR KBED 151756Z 33006KT 10SM SCT250 02/M08 A3004 RMK AO2 SLP189 6////
                 T00221078 10028 21122 $ =
2019-01-15 12:04 METAR KBED 151704Z 33007KT 10SM SCT250 02/M08 A3006 RMK AO2 T00171083 $ =
2019-01-15 11:56 METAR KBED 151656Z 33008KT 10SM 01/M09 A3006 RMK AO2 SLP196 T00111089 $ =
2019-01-15 10:56 METAR KBED 151556Z 30008KT 10SM CLR M01/M10 A3009 RMK AO2 SLP205 T10061100 $ =
2019-01-15 10:37 METAR KBED 151537Z 31006G15KT 10SM CLR M01/M10 A3009 RMK AO2 T10111100 $ =
2019-01-15 09:56 METAR KBED 151456Z AUTO 32007KT 10SM M03/M11 A3010 RMK AO2 SLP210 6////
                 T10281111 $ =
2019-01-15 08:56 METAR KBED 151356Z 30005KT 10SM CLR M05/M12 A3009 RMK AO2 SLP207 T10501117 PNO =
2019-01-15 07:56 METAR KBED 151256Z 29003KT 10SM BKN250 M09/M12 A3006 RMK AO2 SLP198 T10891122
                 PNO =
2019-01-15 06:56 METAR KBED 151156Z 30003KT 10SM SCT250 M12/M14 A3005 RMK AO2 SLP195 6//// 7////
                 T11171144 11089 21122 53007 PNO $ =
2019-01-15 05:56 METAR KBED 151056Z AUTO 00000KT 10SM CLR M11/M14 A3004 RMK AO2 SLP191 T11111139
                 PNO $ =
2019-01-15 04:56 METAR KBED 150956Z AUTO 00000KT 10SM CLR M12/M14 A3003 RMK AO2 SLP188 T11171144
                 PNO $ =
2019-01-15 03:56 METAR KBED 150856Z AUTO 00000KT 10SM CLR M11/M13 A3003 RMK AO2 SLP187 6////
                 T11061133 58006 PNO $ =
2019-01-15 02:56 METAR KBED 150756Z AUTO 32003KT 10SM CLR M09/M12 A3004 RMK AO2 SLP190 T10941122
                 PNO $ =
2019-01-15 01:56 METAR KBED 150656Z AUTO 25004KT 10SM CLR M09/M12 A3004 RMK AO2 SLP191 T10891122
                 PNO $ =
2019-01-15 00:56 METAR KBED 150556Z AUTO 00000KT 10SM CLR M09/M12 A3005 RMK AO2 SLP193 6////
                 I6001 T10891117 11061 21100 58013 PNO $ =
2019-01-14 23:56 METAR KBED 150456Z AUTO 00000KT 10SM CLR M09/M12 A3006 RMK AO2 SLP197 I1001
                 T10941122 400061100 PNO $ =
2019-01-14 22:56 METAR KBED 150356Z AUTO M09/M12 A3008 RMK AO2 SLP204 T10891117 PWINO FZRANO PNO
                 $ =
2019-01-14 21:56 METAR KBED 150256Z 00000KT 10SM CLR M08/M11 A3009 RMK AO2 SLP206 T10781111 56005
                 $ =
2019-01-14 20:56 METAR KBED 150156Z 00000KT 10SM CLR M08/M12 A3009 RMK AO2 SLP207 T10781117 $ =
2019-01-14 19:56 METAR KBED 150056Z 00000KT 10SM CLR M07/M12 A3009 RMK AO2 SLP206 T10671117 $ =
2019-01-14 18:56 METAR KBED 142356Z 00000KT 10SM CLR M07/M12 A3010 RMK AO2 SLP211 T10671117 10006
                 21067 56007 $ =

Support USWX by starting your Amazon purchase here.